Time;durP1;ratioP1;P1;durP2;ratioP2;P2;SDS_P1;SDS_P2;PMS_P1;PMS_P2;Temp;Humidity;BMP_temperature;BMP_pressure;BME280_temperature;BME280_humidity;BME280_pressure;Samples;Min_cycle;Max_cycle;Signal;HPM_P1;HPM_P2
2022/05/11 00:01:00;;;;;;;9.07;8.37;;;;;;;16.87;89.90;100167.47;5072509;28;20179;-72
2022/05/11 00:03:26;;;;;;;9.90;8.93;;;;;;;16.84;89.39;100151.63;5072508;28;20248;-72
2022/05/11 00:05:52;;;;;;;10.57;9.67;;;;;;;16.84;88.84;100154.38;5072338;28;20241;-72
2022/05/11 00:08:17;;;;;;;11.73;10.53;;;;;;;16.86;88.01;100152.88;5072316;28;20185;-72
2022/05/11 00:10:43;;;;;;;10.50;9.70;;;;;;;16.88;87.68;100150.53;5072284;28;20183;-72
2022/05/11 00:13:08;;;;;;;11.23;10.23;;;;;;;16.92;87.45;100150.59;5072185;28;20179;-72
2022/05/11 00:15:34;;;;;;;9.87;9.13;;;;;;;16.99;87.20;100158.25;5072163;28;20200;-72
2022/05/11 00:18:00;;;;;;;11.23;9.33;;;;;;;17.06;86.52;100159.19;5072072;28;20212;-72
2022/05/11 00:20:25;;;;;;;11.10;10.03;;;;;;;17.08;86.23;100151.38;5071966;28;20653;-72
2022/05/11 00:22:55;;;;;;;11.17;10.27;;;;;;;17.03;86.45;100151.66;5072004;28;20312;-72
2022/05/11 00:25:24;;;;;;;10.20;9.47;;;;;;;16.97;86.72;100149.53;5071975;28;20739;-72
2022/05/11 00:27:51;;;;;;;10.73;9.87;;;;;;;16.84;87.26;100146.91;5071780;28;20246;-72
2022/05/11 00:30:16;;;;;;;10.77;9.87;;;;;;;16.87;87.67;100143.41;5071588;28;20252;-72
2022/05/11 00:32:42;;;;;;;10.20;9.40;;;;;;;16.73;87.87;100131.28;5071828;28;20227;-72
2022/05/11 00:35:08;;;;;;;10.93;9.93;;;;;;;16.77;88.65;100130.19;5071835;28;20252;-71
2022/05/11 00:37:33;;;;;;;10.23;9.33;;;;;;;16.89;87.55;100130.06;5071600;28;20263;-72
2022/05/11 00:39:59;;;;;;;10.03;9.33;;;;;;;16.86;87.90;100124.47;5071646;28;20174;-72
2022/05/11 00:42:24;;;;;;;10.07;9.27;;;;;;;16.82;88.37;100127.16;5071517;28;20185;-72
2022/05/11 00:44:49;;;;;;;10.57;9.60;;;;;;;16.85;88.17;100126.44;5071440;28;20213;-72
2022/05/11 00:47:23;;;;;;;11.27;10.27;;;;;;;16.81;88.10;100127.53;5071440;28;20246;-72
2022/05/11 00:49:52;;;;;;;10.87;9.87;;;;;;;16.82;88.14;100126.38;5071566;28;20177;-72
2022/05/11 00:52:25;;;;;;;10.27;9.37;;;;;;;16.87;87.97;100124.09;5071578;28;20190;-72
2022/05/11 00:54:58;;;;;;;10.13;9.20;;;;;;;16.87;87.79;100123.31;5071535;28;20244;-71
2022/05/11 00:57:41;;;;;;;8.83;8.20;;;;;;;16.89;87.70;100121.78;5071290;28;20175;-72
2022/05/11 01:00:10;;;;;;;10.23;9.33;;;;;;;16.90;88.10;100125.34;5067627;28;20190;-72
2022/05/11 01:02:37;;;;;;;9.63;8.80;;;;;;;16.86;87.99;100132.75;5063110;28;20183;-72
2022/05/11 01:05:06;;;;;;;9.67;8.93;;;;;;;16.77;88.22;100127.44;5071320;28;20192;-72
2022/05/11 01:07:33;;;;;;;9.20;8.50;;;;;;;16.73;87.57;100129.31;5070738;28;20182;-72
2022/05/11 01:09:58;;;;;;;9.93;9.03;;;;;;;16.72;87.64;100135.19;5071326;28;20166;-72
2022/05/11 01:12:29;;;;;;;9.23;8.57;;;;;;;16.65;89.12;100141.34;5069904;28;20653;-73
2022/05/11 01:15:00;;;;;;;9.67;8.97;;;;;;;16.53;90.96;100141.44;5071191;28;20253;-73
2022/05/11 01:17:27;;;;;;;9.67;9.07;;;;;;;16.47;91.43;100134.59;5071037;28;20216;-73
2022/05/11 01:19:53;;;;;;;10.13;9.37;;;;;;;16.42;92.37;100124.66;5071091;28;20179;-73
2022/05/11 01:22:47;;;;;;;9.37;8.67;;;;;;;16.35;95.11;100138.28;5071024;28;20162;-71
2022/05/11 01:25:15;;;;;;;9.23;8.53;;;;;;;16.25;96.21;100138.81;5051066;28;20739;-72
2022/05/11 01:27:43;;;;;;;9.43;8.83;;;;;;;16.24;95.74;100131.69;5050831;28;20179;-72
2022/05/11 01:30:13;;;;;;;10.03;9.27;;;;;;;16.31;97.99;100131.84;5050582;28;20247;-73
2022/05/11 01:32:41;;;;;;;9.33;8.73;;;;;;;16.26;100.00;100126.63;5050943;28;20195;-73
2022/05/11 01:35:39;;;;;;;9.57;8.87;;;;;;;15.98;100.00;100116.50;5051120;28;20206;-72
2022/05/11 01:38:10;;;;;;;8.77;7.70;;;;;;;16.01;100.00;100102.00;5019448;28;20465;-72
2022/05/11 01:40:36;;;;;;;8.90;8.20;;;;;;;15.95;100.00;100097.94;5051062;28;20182;-73
2022/05/11 01:43:01;;;;;;;9.40;8.60;;;;;;;15.92;100.00;100098.66;5050614;28;20168;-72
2022/05/11 01:45:27;;;;;;;9.37;8.57;;;;;;;15.85;100.00;100098.44;5050802;28;20187;-72
2022/05/11 01:47:54;;;;;;;9.53;8.73;;;;;;;15.75;100.00;100096.22;5050697;28;20170;-72
2022/05/11 01:50:19;;;;;;;9.97;9.07;;;;;;;15.70;100.00;100091.78;5050827;28;20164;-73
2022/05/11 01:52:45;;;;;;;8.97;8.27;;;;;;;15.65;100.00;100097.56;5050741;28;20657;-73
2022/05/11 01:55:10;;;;;;;9.70;9.10;;;;;;;15.61;100.00;100101.34;5050677;28;20180;-72
2022/05/11 01:57:35;;;;;;;11.03;9.67;;;;;;;15.60;100.00;100099.75;5050364;28;20168;-72
2022/05/11 02:00:01;;;;;;;10.33;9.33;;;;;;;15.55;100.00;100095.28;5050664;28;20171;-71
2022/05/11 02:02:26;;;;;;;10.20;9.37;;;;;;;15.51;100.00;100093.59;5050555;28;20179;-73
2022/05/11 02:07:49;;;;;;;10.43;9.53;;;;;;;15.45;100.00;100077.31;5054295;28;20193;-73
2022/05/11 02:10:14;;;;;;;10.63;9.73;;;;;;;15.44;100.00;100066.66;5070718;28;20174;-73
2022/05/11 02:12:41;;;;;;;10.40;9.40;;;;;;;15.39;100.00;100058.69;5070743;28;20180;-72
2022/05/11 02:15:07;;;;;;;9.93;9.13;;;;;;;15.38;100.00;100054.31;5070412;28;20173;-72
2022/05/11 02:17:32;;;;;;;10.70;9.70;;;;;;;15.38;100.00;100057.06;5070323;28;20171;-72
2022/05/11 02:19:57;;;;;;;9.93;9.03;;;;;;;15.39;100.00;100059.47;5070207;28;20173;-72
2022/05/11 02:22:23;;;;;;;10.10;8.33;;;;;;;15.39;100.00;100064.97;5070262;28;20169;-72
2022/05/11 02:24:48;;;;;;;9.53;8.83;;;;;;;15.41;100.00;100070.13;5070184;28;20259;-72
2022/05/11 02:27:13;;;;;;;10.60;9.60;;;;;;;15.38;100.00;100063.38;5069997;28;20174;-72
2022/05/11 02:29:39;;;;;;;10.20;9.33;;;;;;;15.41;100.00;100053.63;5069900;28;20179;-73
2022/05/11 02:32:04;;;;;;;10.13;9.33;;;;;;;15.40;100.00;100052.00;5070658;28;20250;-72
2022/05/11 02:37:13;;;;;;;9.73;8.90;;;;;;;15.42;100.00;100039.50;5070034;28;20206;-73
2022/05/11 02:39:39;;;;;;;11.53;10.70;;;;;;;15.40;100.00;100038.25;5070246;28;20202;-72
2022/05/11 02:42:05;;;;;;;11.93;10.97;;;;;;;15.45;100.00;100037.97;5070464;28;20179;-73
2022/05/11 02:44:30;;;;;;;11.43;10.53;;;;;;;15.41;100.00;100037.09;5073221;28;20335;-73
2022/05/11 02:46:56;;;;;;;11.50;10.50;;;;;;;15.48;100.00;100034.53;5073669;28;20177;-73
2022/05/11 02:49:22;;;;;;;11.50;10.60;;;;;;;15.46;100.00;100034.88;5073995;28;20174;-72
2022/05/11 02:51:47;;;;;;;12.27;11.07;;;;;;;15.46;100.00;100036.81;5073717;28;20171;-72
2022/05/11 02:54:12;;;;;;;11.43;10.50;;;;;;;15.47;100.00;100030.97;5073795;28;20695;-72
2022/05/11 02:56:38;;;;;;;11.97;11.07;;;;;;;15.43;100.00;100032.81;5073695;28;20241;-72
2022/05/11 02:59:03;;;;;;;12.70;11.67;;;;;;;15.41;100.00;100040.66;5073594;28;20175;-72
2022/05/11 03:01:28;;;;;;;12.90;11.90;;;;;;;15.35;100.00;100035.78;5073552;28;20170;-73
2022/05/11 03:03:54;;;;;;;13.57;12.30;;;;;;;15.32;100.00;100029.00;5073891;28;20162;-73
2022/05/11 03:06:20;;;;;;;12.67;11.67;;;;;;;15.37;100.00;100028.75;5073516;28;20217;-72
2022/05/11 03:08:46;;;;;;;12.90;11.77;;;;;;;15.40;100.00;100028.03;5073378;28;20649;-72
2022/05/11 03:11:11;;;;;;;13.13;12.13;;;;;;;15.44;100.00;100028.13;5073504;28;20178;-73
2022/05/11 03:13:37;;;;;;;12.27;11.37;;;;;;;15.41;100.00;100015.88;5073402;28;20265;-72
2022/05/11 03:16:03;;;;;;;12.43;11.43;;;;;;;15.41;100.00;100021.38;5073275;28;20193;-73
2022/05/11 03:18:28;;;;;;;12.37;11.17;;;;;;;15.37;100.00;100016.94;5073072;28;20703;-73
2022/05/11 03:20:58;;;;;;;12.17;11.13;;;;;;;15.36;100.00;100013.38;5073404;28;20175;-73
2022/05/11 03:23:25;;;;;;;11.70;10.50;;;;;;;15.32;100.00;100006.97;5073304;28;20632;-72
2022/05/11 03:25:51;;;;;;;11.33;10.43;;;;;;;15.29;100.00;100007.69;5073054;28;20209;-72
2022/05/11 03:28:16;;;;;;;11.87;10.77;;;;;;;15.35;100.00;99999.97;5072722;28;20175;-73
2022/05/11 03:30:42;;;;;;;11.87;10.70;;;;;;;15.38;100.00;99999.28;5073177;28;20183;-73
2022/05/11 03:35:51;;;;;;;10.67;9.87;;;;;;;15.36;100.00;99999.63;5073138;28;20193;-73
2022/05/11 03:38:16;;;;;;;12.90;9.50;;;;;;;15.32;100.00;99987.69;5072626;28;20647;-73
2022/05/11 03:40:42;;;;;;;11.20;10.30;;;;;;;15.28;100.00;100000.59;5072806;28;20210;-72
2022/05/11 03:43:07;;;;;;;10.60;9.63;;;;;;;15.28;100.00;99999.78;5073082;28;20286;-72
2022/05/11 03:45:34;;;;;;;10.63;9.83;;;;;;;15.29;100.00;99999.44;5072880;28;20289;-73
2022/05/11 03:47:59;;;;;;;10.63;9.63;;;;;;;15.26;100.00;99991.88;5072579;28;20170;-73
2022/05/11 03:50:25;;;;;;;11.50;10.50;;;;;;;15.29;100.00;99995.88;5073076;28;20536;-72
2022/05/11 03:52:51;;;;;;;11.03;10.13;;;;;;;15.30;100.00;99998.28;5072669;28;20170;-73
2022/05/11 03:55:17;;;;;;;13.17;10.50;;;;;;;15.33;100.00;99992.06;5072136;28;20533;-73
2022/05/11 03:57:43;;;;;;;10.83;9.83;;;;;;;15.32;100.00;99990.47;5072775;28;20167;-72
2022/05/11 04:00:13;;;;;;;12.67;11.57;;;;;;;15.29;100.00;99985.66;5072607;28;20576;-73
2022/05/11 04:02:40;;;;;;;12.07;11.00;;;;;;;15.30;100.00;99986.47;5072658;28;20178;-73
2022/05/11 04:05:07;;;;;;;12.63;11.43;;;;;;;15.32;100.00;99986.91;5072471;28;20540;-73
2022/05/11 04:07:33;;;;;;;13.00;11.90;;;;;;;15.33;100.00;99985.75;5071113;28;20684;-73
2022/05/11 04:09:58;;;;;;;12.57;11.47;;;;;;;15.37;100.00;99989.41;5072236;28;20197;-72
2022/05/11 04:12:26;;;;;;;13.53;12.53;;;;;;;15.27;100.00;99990.72;5072262;28;20174;-72
2022/05/11 04:14:52;;;;;;;12.17;11.17;;;;;;;15.34;100.00;99984.63;5072377;28;20170;-72
2022/05/11 04:17:17;;;;;;;13.03;11.97;;;;;;;15.37;100.00;99976.44;5072155;28;20592;-74
2022/05/11 04:19:43;;;;;;;12.10;11.20;;;;;;;15.42;100.00;99992.69;5072152;28;20175;-73
2022/05/11 04:22:09;;;;;;;12.27;11.37;;;;;;;15.43;100.00;99994.28;5072039;28;20257;-73
2022/05/11 04:24:34;;;;;;;12.53;11.53;;;;;;;15.35;100.00;99998.03;5071911;28;20260;-72
2022/05/11 04:27:00;;;;;;;12.23;11.23;;;;;;;15.28;100.00;99995.06;5071762;28;20171;-72
2022/05/11 04:29:25;;;;;;;11.30;10.40;;;;;;;15.35;100.00;99992.53;5071689;28;20257;-73
2022/05/11 04:31:55;;;;;;;11.27;10.37;;;;;;;15.37;100.00;99990.22;5071960;28;20258;-72
2022/05/11 04:34:20;;;;;;;11.00;10.20;;;;;;;15.38;100.00;99991.81;5071661;28;20167;-72
2022/05/11 04:36:46;;;;;;;11.67;10.77;;;;;;;15.37;100.00;99989.41;5072161;28;20592;-72
2022/05/11 04:39:11;;;;;;;11.80;10.90;;;;;;;15.32;100.00;99995.16;5071728;28;20179;-73
2022/05/11 04:41:36;;;;;;;10.67;9.77;;;;;;;15.29;100.00;99993.13;5071724;28;20182;-72
2022/05/11 04:44:02;;;;;;;11.63;10.53;;;;;;;15.27;100.00;99998.19;5071667;28;20208;-72
2022/05/11 04:46:27;;;;;;;11.43;10.43;;;;;;;15.25;100.00;99998.53;5071913;28;20179;-73
2022/05/11 04:49:16;;;;;;;10.47;9.77;;;;;;;15.25;100.00;99992.25;5071337;28;20190;-73
2022/05/11 04:51:38;;;;;;;11.33;10.33;;;;;;;15.24;100.00;99988.69;5071374;28;20604;-72
2022/05/11 04:54:04;;;;;;;11.40;10.50;;;;;;;15.26;100.00;99991.88;5071530;28;20175;-72
2022/05/11 04:56:31;;;;;;;10.53;9.57;;;;;;;15.32;100.00;99984.16;5071378;28;20162;-72
2022/05/11 04:58:57;;;;;;;9.73;9.03;;;;;;;15.37;100.00;99989.41;5071051;28;20201;-73
2022/05/11 05:01:24;;;;;;;10.27;9.57;;;;;;;15.42;100.00;99987.19;5071345;28;20258;-72
2022/05/11 05:03:49;;;;;;;10.23;9.43;;;;;;;15.46;100.00;99993.56;5069843;28;20567;-72
2022/05/11 05:06:15;;;;;;;11.13;10.07;;;;;;;15.56;100.00;99994.19;5070428;28;20240;-72
2022/05/11 05:08:40;;;;;;;10.30;9.43;;;;;;;15.60;100.00;99998.66;5070966;28;20178;-72
2022/05/11 05:11:05;;;;;;;11.07;10.17;;;;;;;15.69;100.00;100004.00;5071166;28;20261;-73
2022/05/11 05:13:31;;;;;;;10.10;9.10;;;;;;;15.72;100.00;100003.28;5071378;28;20178;-72
2022/05/11 05:15:57;;;;;;;10.90;10.00;;;;;;;15.79;100.00;99999.91;5071052;28;20638;-73
2022/05/11 05:18:22;;;;;;;10.20;9.50;;;;;;;15.80;100.00;100010.56;5070668;28;20181;-72
2022/05/11 05:20:48;;;;;;;10.07;9.07;;;;;;;15.86;99.42;100008.34;5070995;28;20170;-72
2022/05/11 05:23:13;;;;;;;10.53;9.63;;;;;;;15.89;98.46;100013.13;5070920;28;20166;-72
2022/05/11 05:25:38;;;;;;;11.53;10.53;;;;;;;15.90;98.59;100004.50;5070907;28;20198;-72
2022/05/11 05:31:08;;;;;;;9.47;8.77;;;;;;;16.11;94.17;99998.69;5066556;28;20213;-72
2022/05/11 05:33:34;;;;;;;10.00;8.87;;;;;;;16.22;93.64;100008.00;5068998;28;20170;-72
2022/05/11 05:36:01;;;;;;;9.33;8.37;;;;;;;16.25;93.41;100009.25;5071131;28;20178;-72
2022/05/11 05:38:27;;;;;;;13.17;9.80;;;;;;;16.38;92.88;99998.88;5070420;28;20699;-72
2022/05/11 05:40:54;;;;;;;10.83;9.83;;;;;;;16.43;92.45;99999.41;5070706;28;20232;-72
2022/05/11 05:43:20;;;;;;;10.20;9.30;;;;;;;16.56;91.63;100006.38;5070576;28;20193;-73
2022/05/11 05:45:50;;;;;;;12.83;8.73;;;;;;;16.65;91.00;100006.16;5070604;28;20285;-72
2022/05/11 05:48:16;;;;;;;9.30;8.67;;;;;;;16.69;91.51;99996.03;5070326;28;20166;-72
2022/05/11 05:50:41;;;;;;;10.47;9.73;;;;;;;16.77;90.67;99996.97;5070547;28;20236;-72
2022/05/11 05:53:06;;;;;;;9.40;8.40;;;;;;;16.79;90.54;100006.50;5070499;28;20439;-72
2022/05/11 05:55:32;;;;;;;9.07;8.30;;;;;;;16.88;89.78;99997.97;5070807;28;20171;-72
2022/05/11 05:57:59;;;;;;;9.80;9.13;;;;;;;16.97;88.79;100004.06;5070452;28;20174;-73
2022/05/11 06:00:25;;;;;;;9.47;8.77;;;;;;;17.01;88.12;100006.88;5070522;28;20166;-72
2022/05/11 06:02:50;;;;;;;9.33;8.53;;;;;;;17.08;87.84;99996.78;5070367;28;20181;-72
2022/05/11 06:05:16;;;;;;;9.80;8.90;;;;;;;17.10;88.75;100000.00;5070302;28;20213;-73
2022/05/11 06:07:41;;;;;;;9.67;8.77;;;;;;;17.16;87.22;99989.44;5069641;28;20218;-72
2022/05/11 06:10:07;;;;;;;9.20;8.47;;;;;;;17.19;85.76;99992.25;5069840;28;20209;-72
2022/05/11 06:12:32;;;;;;;9.30;8.60;;;;;;;17.26;85.28;99983.31;5070108;28;20220;-72
2022/05/11 06:14:58;;;;;;;9.33;8.57;;;;;;;17.29;86.53;99990.06;5072259;28;20178;-72
2022/05/11 06:17:23;;;;;;;9.67;8.67;;;;;;;17.34;84.88;99978.69;5081221;28;20194;-72
2022/05/11 06:19:50;;;;;;;9.97;8.87;;;;;;;17.35;84.79;99972.00;5079596;28;20647;-72
2022/05/11 06:22:15;;;;;;;9.23;8.53;;;;;;;17.39;84.63;99984.72;5074573;28;20752;-72
2022/05/11 06:24:41;;;;;;;9.73;8.87;;;;;;;17.39;84.45;99986.69;5074264;28;20197;-72
2022/05/11 06:27:12;;;;;;;8.33;7.73;;;;;;;17.42;83.94;99977.66;5074313;28;20650;-72
2022/05/11 06:29:38;;;;;;;8.07;7.47;;;;;;;17.54;86.11;99983.00;5074338;28;20178;-71
2022/05/11 06:32:03;;;;;;;9.13;8.33;;;;;;;17.54;89.17;99969.97;5074323;28;20182;-72
2022/05/11 06:34:29;;;;;;;9.50;8.70;;;;;;;17.67;91.49;99965.06;5074210;28;20182;-72
2022/05/11 06:36:54;;;;;;;9.40;8.60;;;;;;;17.77;94.63;99964.44;5074209;28;20255;-72
2022/05/11 06:39:21;;;;;;;10.40;9.53;;;;;;;17.79;93.78;99961.31;5074197;28;20655;-72
2022/05/11 06:41:46;;;;;;;10.80;9.90;;;;;;;17.82;93.15;99960.59;5074213;28;20193;-73
2022/05/11 06:44:12;;;;;;;11.27;10.20;;;;;;;17.89;88.63;99962.63;5073875;28;20277;-72
2022/05/11 06:46:37;;;;;;;10.67;9.97;;;;;;;17.87;86.62;99960.25;5074282;28;20179;-72
2022/05/11 06:49:03;;;;;;;12.20;11.20;;;;;;;17.96;87.00;99952.50;5073746;28;20273;-73
2022/05/11 06:51:31;;;;;;;10.97;10.07;;;;;;;18.05;86.14;99950.25;5073933;28;20174;-73
2022/05/11 06:59:30;;;;;;;10.90;10.10;;;;;;;18.18;85.28;99945.28;5073834;28;20657;-72
2022/05/11 07:02:03;;;;;;;10.03;9.30;;;;;;;18.22;84.92;99937.81;5073641;28;20653;-72
2022/05/11 07:04:28;;;;;;;10.87;9.87;;;;;;;18.27;84.88;99945.00;5073461;28;20201;-72
2022/05/11 07:06:56;;;;;;;10.07;9.37;;;;;;;18.30;84.45;99942.28;5073380;28;20167;-73
2022/05/11 07:09:24;;;;;;;10.77;9.80;;;;;;;18.37;84.83;99939.63;5073610;28;20209;-73
2022/05/11 07:14:34;;;;;;;10.03;9.23;;;;;;;18.47;83.36;99931.81;5073933;28;20808;-72
2022/05/11 07:16:59;;;;;;;10.13;9.43;;;;;;;18.52;83.18;99928.72;5072085;28;20171;-72
2022/05/11 07:19:25;;;;;;;9.63;8.93;;;;;;;18.53;82.07;99922.03;5073672;28;20527;-72
2022/05/11 07:21:51;;;;;;;9.93;9.23;;;;;;;18.52;80.92;99928.72;5073230;28;20177;-72
2022/05/11 07:24:17;;;;;;;10.50;9.70;;;;;;;18.53;81.36;99927.56;5072987;28;20193;-73
2022/05/11 07:26:43;;;;;;;11.33;10.43;;;;;;;18.61;81.83;99930.00;5073179;28;20179;-72
2022/05/11 07:29:08;;;;;;;10.40;9.43;;;;;;;18.68;80.16;99927.38;5072035;28;20190;-73
2022/05/11 07:31:34;;;;;;;11.17;10.37;;;;;;;18.81;79.43;99922.38;5072913;28;20171;-72
2022/05/11 07:33:59;;;;;;;9.53;8.73;;;;;;;18.99;79.63;99919.78;5073077;28;20174;-73
2022/05/11 07:36:25;;;;;;;9.70;8.80;;;;;;;19.12;79.29;99907.25;5072746;28;20241;-73
2022/05/11 07:38:51;;;;;;;9.47;8.73;;;;;;;19.23;78.55;99921.16;5073022;28;20577;-73
2022/05/11 07:41:16;;;;;;;9.60;8.90;;;;;;;19.39;77.47;99918.16;5072817;28;20175;-73
2022/05/11 07:43:42;;;;;;;9.13;8.43;;;;;;;19.48;76.25;99911.06;5072759;28;20191;-74
2022/05/11 07:46:07;;;;;;;8.67;8.07;;;;;;;19.50;73.37;99916.22;5071345;28;20244;-72
2022/05/11 07:48:32;;;;;;;8.13;7.63;;;;;;;19.57;73.65;99911.59;5072621;28;20657;-72
2022/05/11 07:50:58;;;;;;;7.53;7.03;;;;;;;19.73;75.02;99910.50;5072636;28;20618;-72
2022/05/11 07:53:23;;;;;;;7.37;6.83;;;;;;;19.79;73.14;99908.94;5069538;28;20662;-72
2022/05/11 07:59:52;;;;;;;7.90;7.30;;;;;;;19.76;72.66;99898.63;5072424;28;20193;-72
2022/05/11 08:01:18;;;;;;;8.50;7.80;;;;;;;19.83;71.96;99905.03;5072329;28;20554;-72
2022/05/11 08:03:43;;;;;;;8.17;7.67;;;;;;;19.80;71.77;99889.16;5069127;28;20187;-71
2022/05/11 08:06:08;;;;;;;8.43;7.73;;;;;;;19.89;71.48;99906.25;5072338;28;20289;-72
2022/05/11 08:08:33;;;;;;;7.23;6.63;;;;;;;20.00;70.68;99898.00;5072067;28;20175;-72
2022/05/11 08:10:59;;;;;;;4.60;4.30;;;;;;;20.08;68.97;99896.03;5068978;28;20272;-72
2022/05/11 08:13:24;;;;;;;6.53;6.13;;;;;;;20.14;70.75;99894.50;5072097;28;20198;-72
2022/05/11 08:15:50;;;;;;;7.23;6.73;;;;;;;20.16;69.98;99890.13;5071923;28;20230;-72
2022/05/11 08:18:18;;;;;;;7.37;6.77;;;;;;;20.28;70.25;99893.75;5072303;28;20170;-73
2022/05/11 08:20:44;;;;;;;8.13;7.53;;;;;;;20.23;69.31;99894.91;5072114;28;20174;-73
2022/05/11 08:23:11;;;;;;;7.27;6.80;;;;;;;20.33;69.26;99894.16;5072387;28;20171;-73
2022/05/11 08:25:39;;;;;;;8.63;8.03;;;;;;;20.33;68.50;99885.84;5071963;28;20562;-72
2022/05/11 08:28:14;;;;;;;7.87;7.37;;;;;;;20.39;69.08;99867.63;5071480;28;20281;-73
2022/05/11 08:33:26;;;;;;;7.33;6.80;;;;;;;20.52;68.52;99868.06;5072322;28;20266;-73
2022/05/11 08:36:16;;;;;;;6.60;6.10;;;;;;;20.72;67.13;99866.56;5071936;28;20197;-73
2022/05/11 08:38:45;;;;;;;6.80;6.30;;;;;;;20.87;67.19;99859.03;5071816;28;20559;-72
2022/05/11 08:41:33;;;;;;;4.60;4.30;;;;;;;20.92;65.81;99863.41;5071884;28;20175;-72
2022/05/11 08:44:11;;;;;;;6.67;5.90;;;;;;;21.10;65.57;99851.09;5068212;28;20194;-73
2022/05/11 08:46:55;;;;;;;6.77;6.37;;;;;;;21.04;63.56;99851.91;5071406;28;20206;-72
2022/05/11 08:49:48;;;;;;;6.60;6.00;;;;;;;21.14;64.71;99856.66;5058381;28;20174;-72
2022/05/11 08:52:22;;;;;;;5.37;4.70;;;;;;;21.17;62.45;99852.31;5071859;28;20626;-73
2022/05/11 08:54:53;;;;;;;6.63;6.03;;;;;;;21.26;62.87;99853.50;5071451;28;20222;-73
2022/05/11 08:57:23;;;;;;;4.77;4.47;;;;;;;21.46;62.65;99851.09;5071366;28;20622;-73
2022/05/11 08:59:53;;;;;;;7.23;5.53;;;;;;;21.43;61.82;99851.91;5071421;28;20167;-73
2022/05/11 09:02:24;;;;;;;4.73;4.33;;;;;;;21.49;62.29;99855.88;5071294;28;20801;-72
2022/05/11 09:05:01;;;;;;;6.53;6.03;;;;;;;21.47;61.43;99857.47;5070471;28;20252;-72
2022/05/11 09:07:31;;;;;;;5.27;4.87;;;;;;;21.66;61.59;99843.13;5071059;28;20214;-72
2022/05/11 09:09:57;;;;;;;3.90;3.60;;;;;;;21.69;58.81;99850.66;5071062;28;20452;-72
2022/05/11 09:12:22;;;;;;;5.33;4.63;;;;;;;21.74;58.20;99850.25;5071135;28;20618;-72
2022/05/11 09:14:57;;;;;;;5.90;5.50;;;;;;;21.75;57.92;99837.16;5071194;28;20174;-72
2022/05/11 09:17:40;;;;;;;5.77;5.33;;;;;;;21.92;57.63;99845.44;5070973;28;20181;-73
2022/05/11 09:20:12;;;;;;;5.37;4.97;;;;;;;21.95;57.83;99846.59;5070759;28;20174;-72
2022/05/11 09:22:58;;;;;;;4.70;4.40;;;;;;;22.06;58.47;99847.41;5070944;28;20240;-72
2022/05/11 09:25:26;;;;;;;7.90;5.20;;;;;;;22.14;56.90;99845.38;5070839;28;20194;-72
2022/05/11 09:28:11;;;;;;;5.90;5.50;;;;;;;21.97;56.70;99838.66;5070286;28;20183;-72
2022/05/11 09:30:37;;;;;;;5.73;5.23;;;;;;;22.08;57.75;99845.00;5070623;28;20196;-72
2022/05/11 09:33:22;;;;;;;4.50;4.10;;;;;;;22.09;57.42;99843.00;5070586;28;20639;-72
2022/05/11 09:35:48;;;;;;;5.97;3.13;;;;;;;22.14;57.80;99843.41;5070642;28;20202;-72
2022/05/11 09:38:16;;;;;;;4.97;4.57;;;;;;;22.18;56.33;99837.81;5070217;28;20643;-72
2022/05/11 09:40:58;;;;;;;5.67;5.37;;;;;;;22.20;57.99;99838.97;5070402;28;20639;-72
2022/05/11 09:43:38;;;;;;;5.30;4.80;;;;;;;22.36;58.00;99830.16;5070299;28;20280;-72
2022/05/11 09:46:27;;;;;;;5.87;5.20;;;;;;;22.52;57.45;99832.44;5070440;28;20206;-72
2022/05/11 09:49:24;;;;;;;6.10;5.60;;;;;;;22.40;56.94;99822.56;5070145;28;20569;-72
2022/05/11 09:51:50;;;;;;;5.67;5.20;;;;;;;22.51;56.54;99825.28;5068715;28;20179;-72
2022/05/11 09:54:18;;;;;;;5.67;5.17;;;;;;;22.51;57.16;99814.94;5070349;28;20203;-72
2022/05/11 09:56:57;;;;;;;5.93;5.53;;;;;;;22.74;58.42;99822.75;5070132;28;20178;-72
2022/05/11 09:59:31;;;;;;;6.23;5.70;;;;;;;22.93;58.44;99818.66;5068775;28;20174;-72
2022/05/11 10:02:32;;;;;;;6.27;5.70;;;;;;;23.01;56.27;99809.03;5070199;28;20488;-72
2022/05/11 10:05:08;;;;;;;6.50;5.87;;;;;;;23.08;56.91;99810.97;5056813;28;20218;-72
2022/05/11 10:07:47;;;;;;;4.17;3.80;;;;;;;23.15;54.56;99810.91;5069908;28;20173;-72
2022/05/11 10:10:24;;;;;;;26.47;1.73;;;;;;;23.04;52.98;99807.44;5070236;28;20202;-72
2022/05/11 10:12:49;;;;;;;4.23;3.87;;;;;;;23.07;54.78;99790.66;5066701;28;20189;-72
2022/05/11 10:24:28;;;;;;;4.80;4.23;;;;;;;23.60;54.16;99789.38;5058397;28;20665;-72
2022/05/11 10:27:15;;;;;;;3.80;2.30;;;;;;;23.68;52.40;99782.47;5068486;28;20178;-72
2022/05/11 10:29:51;;;;;;;3.50;3.20;;;;;;;23.83;52.61;99790.69;5069806;28;20537;-72
2022/05/11 10:32:34;;;;;;;3.80;3.50;;;;;;;23.93;50.32;99773.03;5066083;28;20247;-72
2022/05/11 10:35:10;;;;;;;2.43;2.23;;;;;;;24.07;50.09;99778.41;5070145;28;20267;-72
2022/05/11 10:37:48;;;;;;;3.97;3.37;;;;;;;24.03;50.22;99777.69;5061064;28;20186;-72
2022/05/11 10:40:40;;;;;;;1.80;1.70;;;;;;;23.97;49.50;99771.75;5069961;28;20257;-72
2022/05/11 10:43:26;;;;;;;2.03;1.93;;;;;;;24.03;49.59;99772.88;5069922;28;20188;-72
2022/05/11 10:46:14;;;;;;;2.40;2.20;;;;;;;24.07;49.92;99767.25;5068598;28;20566;-72
2022/05/11 10:49:18;;;;;;;1.63;1.53;;;;;;;24.20;49.53;99771.06;5069906;28;20178;-72
2022/05/11 10:51:52;;;;;;;2.97;2.77;;;;;;;23.99;48.37;99766.53;4985129;28;20298;-72
2022/05/11 10:54:30;;;;;;;3.67;2.60;;;;;;;23.99;49.04;99763.75;4988144;28;20322;-72
2022/05/11 10:57:11;;;;;;;7.57;2.27;;;;;;;24.15;47.90;99751.97;5025546;28;20603;-72
2022/05/11 10:59:52;;;;;;;2.50;2.30;;;;;;;24.17;49.33;99759.94;5065841;28;20171;-72
2022/05/11 11:02:29;;;;;;;3.53;3.10;;;;;;;24.48;49.15;99760.72;5070089;28;20397;-72
2022/05/11 11:05:19;;;;;;;3.03;2.83;;;;;;;24.71;48.71;99759.94;5072276;28;20209;-72
2022/05/11 11:08:11;;;;;;;3.20;2.90;;;;;;;25.02;48.27;99755.03;5073675;28;20171;-72
2022/05/11 11:10:44;;;;;;;2.67;2.47;;;;;;;25.04;47.22;99749.84;5062602;28;20346;-72
2022/05/11 11:13:15;;;;;;;3.27;2.73;;;;;;;24.81;46.36;99753.38;5073335;28;20170;-72
2022/05/11 11:15:44;;;;;;;3.77;2.80;;;;;;;24.55;46.16;99755.78;5072866;28;20183;-73
2022/05/11 11:18:13;;;;;;;1.60;1.50;;;;;;;24.65;45.74;99742.09;5055375;28;20170;-72
2022/05/11 11:20:45;;;;;;;2.03;1.93;;;;;;;24.66;46.03;99740.88;5073197;28;20197;-72
2022/05/11 11:23:16;;;;;;;3.03;1.80;;;;;;;24.67;45.78;99737.66;5073446;28;20151;-72
2022/05/11 11:25:45;;;;;;;3.50;2.93;;;;;;;24.74;46.48;99720.78;5073201;28;20245;-72
2022/05/11 11:28:14;;;;;;;7.70;2.87;;;;;;;24.97;45.62;99727.56;5073023;28;20675;-72
2022/05/11 11:30:42;;;;;;;1.43;1.40;;;;;;;25.11;44.07;99730.13;5073223;28;20528;-72
2022/05/11 11:33:11;;;;;;;1.40;1.33;;;;;;;24.99;46.06;99737.09;5073228;28;20171;-72
2022/05/11 11:36:09;;;;;;;1.53;1.43;;;;;;;25.00;45.02;99713.53;5073173;28;20661;-72
2022/05/11 11:38:41;;;;;;;2.60;2.10;;;;;;;25.18;45.97;99725.19;5058175;28;20237;-72
2022/05/11 11:41:17;;;;;;;4.83;2.67;;;;;;;25.28;45.12;99723.41;5073319;28;20174;-72
2022/05/11 11:43:54;;;;;;;3.07;2.60;;;;;;;25.35;44.53;99714.88;5072900;28;20232;-72
2022/05/11 11:46:46;;;;;;;2.50;2.27;;;;;;;25.39;44.68;99726.00;5073002;28;20210;-72
2022/05/11 11:49:27;;;;;;;2.60;2.40;;;;;;;25.54;44.33;99718.88;5068699;28;20198;-72
2022/05/11 11:51:57;;;;;;;2.23;2.03;;;;;;;25.01;44.74;99712.31;5072814;28;20622;-72
2022/05/11 11:54:36;;;;;;;2.93;2.73;;;;;;;24.65;45.26;99716.94;5072797;28;20175;-72
2022/05/11 11:57:14;;;;;;;2.10;2.00;;;;;;;24.66;46.19;99713.72;5069830;28;20279;-72
2022/05/11 11:59:43;;;;;;;2.10;2.00;;;;;;;24.75;45.88;99713.97;5068383;28;20170;-72
2022/05/11 12:02:14;;;;;;;2.40;2.27;;;;;;;25.10;44.41;99706.97;5064277;28;20186;-72
2022/05/11 12:04:44;;;;;;;5.00;2.80;;;;;;;25.26;46.45;99705.47;5052551;28;20556;-73
2022/05/11 12:15:37;;;;;;;13.77;2.87;;;;;;;25.61;45.48;99713.16;5062753;28;20231;-72